Szczecin-Goleniow Solidarnosc Airport Goleniow PL
ICAO: EPSC
IATA: SZZ
Category: Medium
Scheduled Services: Yes

Elevation: 154 ft
TransAlt. 6500 ft.

Airport Communications:
SZCZECIN TWR:118.5

EPSC Zoom In..

Runways:

(A) RW 13 length 8202 ft width 197 ft
---- / hdg 128

(B) RW 31 length 8202 ft width 197 ft
ILS 110.50 / hdg 308

Location; EPSC
Day. 06 / Time. 22.30 Zulu
* QNH: 1005
* Temperature: 12° c. 53.6°f.
* Wind from: 160° Speed 03 kn.
Dewpoint: 06° c.
Visibility: 10 km or more,
No clouds below 1,500 m.
No cumulonimbus, and no significant weather
fenomena in the aerodrome or its vicinity.

EPSC 062230Z 16003KT CAVOK 12/06 Q1005


Wind From 160°
Speed 03 kn.

 
 
jpsmedia worldairports.se 2020   terms of use